Time;durP1;ratioP1;P1;durP2;ratioP2;P2;SDS_P1;SDS_P2;PMS_P1;PMS_P2;Temp;Humidity;BMP_temperature;BMP_pressure;BME280_temperature;BME280_humidity;BME280_pressure;Samples;Min_cycle;Max_cycle;Signal;HPM_P1;HPM_P2
2024/01/22 00:00:22;;;;;;;2.92;2.10;;;17.30;56.80;;;;;;4906012;29;20526;-82
2024/01/22 00:02:48;;;;;;;3.35;1.90;;;17.30;56.80;;;;;;4948410;23;20241;-81
2024/01/22 00:05:15;;;;;;;3.67;2.08;;;17.30;56.80;;;;;;4904010;29;20159;-83
2024/01/22 00:07:41;;;;;;;4.15;2.03;;;17.30;56.80;;;;;;4904984;29;20170;-80
2024/01/22 00:10:08;;;;;;;4.32;1.88;;;17.30;57.00;;;;;;4859484;29;20179;-82
2024/01/22 00:12:35;;;;;;;2.78;1.80;;;17.30;56.90;;;;;;4887025;29;20175;-79
2024/01/22 00:15:01;;;;;;;2.58;1.90;;;17.30;56.90;;;;;;4888084;29;20181;-83
2024/01/22 00:17:27;;;;;;;2.88;1.90;;;17.30;56.60;;;;;;4872479;29;20202;-80
2024/01/22 00:19:52;;;;;;;2.42;1.70;;;17.20;56.90;;;;;;4886265;29;20649;-81
2024/01/22 00:22:18;;;;;;;2.63;2.00;;;17.30;56.50;;;;;;4904109;29;20535;-81
2024/01/22 00:24:47;;;;;;;2.75;1.92;;;17.30;56.80;;;;;;4922639;29;20160;-82
2024/01/22 00:27:13;;;;;;;2.42;2.05;;;17.30;56.80;;;;;;4867904;29;20219;-81
2024/01/22 00:29:39;;;;;;;2.95;2.00;;;17.30;56.70;;;;;;4893321;29;20529;-80
2024/01/22 00:32:06;;;;;;;3.10;2.08;;;17.30;56.60;;;;;;4898751;29;20174;-81
2024/01/22 00:37:44;;;;;;;1.80;1.63;;;17.30;56.60;;;;;;4989018;23;20237;-83
2024/01/22 00:40:11;;;;;;;2.42;1.80;;;17.30;56.60;;;;;;4938053;29;20178;-79
2024/01/22 00:42:36;;;;;;;3.10;1.80;;;17.30;56.70;;;;;;4908639;29;20206;-82
2024/01/22 00:45:02;;;;;;;4.10;2.10;;;17.30;56.70;;;;;;4915780;29;20186;-81
2024/01/22 00:47:28;;;;;;;2.20;2.00;;;17.30;56.80;;;;;;4907516;29;20545;-82
2024/01/22 00:49:57;;;;;;;2.53;1.90;;;17.30;56.70;;;;;;4923686;29;20155;-82
2024/01/22 00:52:23;;;;;;;2.85;2.10;;;17.30;56.70;;;;;;4950153;29;20187;-81
2024/01/22 00:54:49;;;;;;;4.32;1.80;;;17.30;56.70;;;;;;4959912;28;20169;-79
2024/01/22 00:57:14;;;;;;;2.50;2.20;;;17.30;56.80;;;;;;4928111;23;20337;-82
2024/01/22 00:59:40;;;;;;;2.13;1.70;;;17.30;56.50;;;;;;4904972;29;20634;-79
2024/01/22 01:02:06;;;;;;;3.42;2.08;;;17.30;56.70;;;;;;4904739;29;20167;-81
2024/01/22 01:04:32;;;;;;;2.20;2.00;;;17.20;56.80;;;;;;4904340;29;20171;-80
2024/01/22 01:06:57;;;;;;;2.88;2.17;;;17.20;56.70;;;;;;4920878;29;20215;-82
2024/01/22 01:09:23;;;;;;;2.40;1.63;;;17.30;56.90;;;;;;4921615;29;20159;-80
2024/01/22 01:11:49;;;;;;;3.60;2.10;;;17.30;56.70;;;;;;4921086;29;20239;-82
2024/01/22 01:14:15;;;;;;;3.03;2.20;;;17.30;56.90;;;;;;4921582;29;20218;-82
2024/01/22 01:16:41;;;;;;;2.75;2.25;;;17.20;56.80;;;;;;4888786;29;20795;-82
2024/01/22 01:19:07;;;;;;;2.20;1.75;;;17.20;57.00;;;;;;4904808;29;20537;-80
2024/01/22 01:21:38;;;;;;;2.55;1.98;;;17.20;56.90;;;;;;4917079;29;20163;-83
2024/01/22 01:24:04;;;;;;;4.18;1.80;;;17.30;56.60;;;;;;4872571;29;20171;-79
2024/01/22 01:26:29;;;;;;;2.60;1.90;;;17.20;56.50;;;;;;4873082;29;20182;-83
2024/01/22 01:28:55;;;;;;;2.60;2.30;;;17.30;56.60;;;;;;4904130;29;20179;-83
2024/01/22 01:31:22;;;;;;;2.10;1.85;;;17.20;56.60;;;;;;4890922;29;20524;-82
2024/01/22 01:33:49;;;;;;;2.30;2.10;;;17.20;56.50;;;;;;4885286;29;20167;-80
2024/01/22 01:36:18;;;;;;;2.30;1.85;;;17.30;56.70;;;;;;4903645;29;20202;-82
2024/01/22 01:38:43;;;;;;;2.10;1.80;;;17.20;56.80;;;;;;4872520;29;20187;-82
2024/01/22 01:41:10;;;;;;;2.33;2.13;;;17.30;56.60;;;;;;4884630;29;20191;-82
2024/01/22 01:43:38;;;;;;;3.22;2.08;;;17.30;56.80;;;;;;4885832;29;20176;-81
2024/01/22 01:46:05;;;;;;;2.85;2.10;;;17.30;57.00;;;;;;4841116;29;20193;-81
2024/01/22 01:48:33;;;;;;;2.45;1.98;;;17.20;56.80;;;;;;4900190;29;20183;-81
2024/01/22 01:51:00;;;;;;;2.40;2.10;;;17.30;57.10;;;;;;4885353;29;20270;-82
2024/01/22 01:53:29;;;;;;;2.88;2.35;;;17.10;57.00;;;;;;4909493;29;20182;-82
2024/01/22 01:55:55;;;;;;;2.83;2.00;;;17.20;57.10;;;;;;4914974;29;20218;-83
2024/01/22 01:58:20;;;;;;;3.08;2.00;;;17.20;56.80;;;;;;4885059;29;20318;-82
2024/01/22 02:00:48;;;;;;;3.10;1.90;;;17.20;56.80;;;;;;4888093;29;20195;-83
2024/01/22 02:03:14;;;;;;;3.33;2.25;;;17.20;57.00;;;;;;4903673;29;20626;-81
2024/01/22 02:05:41;;;;;;;2.58;1.75;;;17.20;57.00;;;;;;4902800;29;20195;-80
2024/01/22 02:08:06;;;;;;;3.70;2.00;;;17.20;56.80;;;;;;4894539;29;20175;-80
2024/01/22 02:10:32;;;;;;;2.88;2.10;;;17.20;56.90;;;;;;4872153;29;20631;-81
2024/01/22 02:13:04;;;;;;;2.28;1.88;;;17.10;56.80;;;;;;4903352;29;20162;-83
2024/01/22 02:15:30;;;;;;;3.90;1.98;;;17.20;56.70;;;;;;4902409;29;20227;-83
2024/01/22 02:18:03;;;;;;;3.22;1.80;;;17.10;56.90;;;;;;4903173;29;20185;-83
2024/01/22 02:20:32;;;;;;;3.85;2.15;;;17.10;56.70;;;;;;4855941;29;20186;-82
2024/01/22 02:23:05;;;;;;;2.53;1.90;;;17.10;57.00;;;;;;4871167;29;20183;-81
2024/01/22 02:28:01;;;;;;;2.85;2.15;;;17.10;56.80;;;;;;4950656;23;20663;-81
2024/01/22 02:30:27;;;;;;;2.47;2.13;;;17.20;57.10;;;;;;4886821;29;20186;-80
2024/01/22 02:32:54;;;;;;;2.30;1.83;;;17.20;57.00;;;;;;4914354;29;20733;-82
2024/01/22 02:35:21;;;;;;;2.30;1.90;;;17.10;57.10;;;;;;4904163;29;20178;-82
2024/01/22 02:37:47;;;;;;;2.75;2.03;;;17.10;57.00;;;;;;4945891;23;20242;-80
2024/01/22 02:40:13;;;;;;;2.00;1.80;;;17.10;57.20;;;;;;4922709;29;20814;-82
2024/01/22 02:42:39;;;;;;;2.97;1.85;;;17.10;57.20;;;;;;4922515;29;20167;-81
2024/01/22 02:45:08;;;;;;;2.60;2.13;;;17.10;57.10;;;;;;4896679;29;20171;-80
2024/01/22 02:47:35;;;;;;;2.22;1.83;;;17.10;57.20;;;;;;4856586;29;20214;-83
2024/01/22 02:50:04;;;;;;;3.05;1.98;;;17.10;57.00;;;;;;4888533;29;20186;-79
2024/01/22 02:52:30;;;;;;;2.40;1.80;;;17.10;56.80;;;;;;4887868;29;20226;-81
2024/01/22 02:54:55;;;;;;;2.30;2.10;;;17.10;57.70;;;;;;4903960;29;20163;-83
2024/01/22 02:57:21;;;;;;;2.33;1.63;;;17.10;57.00;;;;;;4906755;29;20531;-82
2024/01/22 02:59:47;;;;;;;3.25;2.20;;;17.10;57.10;;;;;;4927097;29;20588;-82
2024/01/22 03:02:16;;;;;;;2.47;2.00;;;17.10;57.00;;;;;;4903355;29;20197;-81
2024/01/22 03:04:42;;;;;;;2.35;1.90;;;17.10;56.80;;;;;;4887326;29;20280;-81
2024/01/22 03:07:08;;;;;;;2.58;1.88;;;17.10;57.00;;;;;;4929444;29;20270;-81
2024/01/22 03:09:34;;;;;;;2.63;1.90;;;17.10;57.10;;;;;;4921663;29;20170;-83
2024/01/22 03:12:00;;;;;;;3.50;2.00;;;17.10;57.10;;;;;;4901906;29;20299;-82
2024/01/22 03:14:25;;;;;;;3.35;1.73;;;17.10;57.20;;;;;;4922086;29;20166;-82
2024/01/22 03:16:51;;;;;;;2.08;1.85;;;17.10;57.00;;;;;;4887968;29;20209;-79
2024/01/22 03:19:27;;;;;;;2.67;2.17;;;17.10;57.10;;;;;;4921047;29;20163;-80
2024/01/22 03:24:27;;;;;;;2.80;1.95;;;17.10;57.00;;;;;;4918097;29;20237;-81
2024/01/22 03:26:52;;;;;;;3.08;2.17;;;17.10;56.70;;;;;;4903088;29;20194;-82
2024/01/22 03:29:18;;;;;;;3.35;1.92;;;17.10;57.00;;;;;;4912358;23;20159;-81
2024/01/22 03:31:44;;;;;;;2.38;1.88;;;17.10;57.00;;;;;;4904946;29;20205;-81
2024/01/22 03:34:10;;;;;;;2.72;2.08;;;17.00;56.80;;;;;;4934170;29;20274;-82
2024/01/22 03:36:39;;;;;;;2.85;2.00;;;17.10;56.80;;;;;;4924081;29;20222;-80
2024/01/22 03:39:05;;;;;;;3.33;2.05;;;17.10;57.00;;;;;;4887031;29;20183;-81
2024/01/22 03:41:33;;;;;;;3.13;1.90;;;17.10;56.90;;;;;;4903002;29;20186;-81
2024/01/22 03:43:59;;;;;;;3.67;2.00;;;17.00;56.80;;;;;;4886630;29;20690;-81
2024/01/22 03:46:25;;;;;;;2.45;1.80;;;17.10;56.80;;;;;;4886961;29;20322;-83
2024/01/22 03:48:51;;;;;;;2.67;1.77;;;17.10;56.90;;;;;;4939434;29;20186;-82
2024/01/22 03:51:21;;;;;;;2.05;1.70;;;17.10;56.90;;;;;;4921938;29;20317;-82
2024/01/22 03:53:46;;;;;;;2.33;1.88;;;17.00;56.90;;;;;;4886925;29;20198;-82
2024/01/22 03:56:13;;;;;;;2.38;2.10;;;17.00;56.80;;;;;;4892583;29;20781;-80
2024/01/22 03:58:39;;;;;;;2.35;1.95;;;17.10;57.10;;;;;;4919905;29;20163;-81
2024/01/22 04:01:05;;;;;;;2.80;1.90;;;17.00;56.80;;;;;;4891737;29;20208;-81
2024/01/22 04:03:32;;;;;;;2.35;1.83;;;17.00;56.90;;;;;;4901831;29;20163;-81
2024/01/22 04:05:58;;;;;;;2.05;1.83;;;17.00;57.00;;;;;;4901975;29;20178;-80
2024/01/22 04:08:24;;;;;;;2.53;1.90;;;17.00;56.80;;;;;;4901897;29;20163;-81
2024/01/22 04:10:50;;;;;;;2.58;1.90;;;17.10;56.80;;;;;;4901732;29;20620;-80
2024/01/22 04:13:16;;;;;;;1.80;1.70;;;17.10;56.70;;;;;;4902460;29;20246;-82
2024/01/22 04:15:49;;;;;;;2.40;1.90;;;17.10;56.80;;;;;;4885227;29;20206;-81
2024/01/22 04:18:18;;;;;;;3.60;2.00;;;17.00;57.00;;;;;;4855726;29;20209;-81
2024/01/22 04:20:47;;;;;;;2.40;2.00;;;17.10;57.00;;;;;;4854269;29;20198;-82
2024/01/22 04:23:19;;;;;;;2.17;1.70;;;17.00;56.60;;;;;;4870099;29;20557;-82
2024/01/22 04:25:49;;;;;;;2.33;2.00;;;17.10;56.80;;;;;;4855092;29;20194;-83
2024/01/22 04:28:20;;;;;;;2.40;1.92;;;17.00;56.70;;;;;;4869924;29;20197;-80
2024/01/22 04:30:45;;;;;;;1.95;1.70;;;17.10;56.70;;;;;;4859332;29;20237;-81
2024/01/22 04:33:14;;;;;;;3.20;1.95;;;17.00;56.70;;;;;;4941692;29;20522;-83
2024/01/22 04:35:49;;;;;;;;;;;;;;;;;;;;;
2024/01/22 04:38:10;;;;;;;2.50;1.80;;;17.00;56.70;;;;;;4825513;23;20273;-82
2024/01/22 04:43:12;;;;;;;2.17;1.77;;;17.00;56.60;;;;;;4900902;29;20694;-82
2024/01/22 04:45:40;;;;;;;2.25;1.70;;;17.00;56.70;;;;;;4838446;29;20187;-81
2024/01/22 04:48:08;;;;;;;2.30;1.60;;;17.00;56.60;;;;;;4854274;29;20198;-82
2024/01/22 04:50:36;;;;;;;2.97;1.95;;;17.00;56.60;;;;;;4859912;29;20187;-82
2024/01/22 04:53:06;;;;;;;2.55;2.25;;;17.00;56.70;;;;;;4870270;29;20210;-81
2024/01/22 04:55:36;;;;;;;1.98;1.77;;;17.00;56.80;;;;;;4885409;29;20651;-83
2024/01/22 04:58:03;;;;;;;2.92;2.00;;;17.00;56.90;;;;;;4869015;29;20198;-81
2024/01/22 05:00:31;;;;;;;2.88;1.83;;;17.00;56.60;;;;;;4868935;29;20191;-81
2024/01/22 05:03:04;;;;;;;3.08;2.00;;;17.00;56.80;;;;;;4869673;29;20195;-82
2024/01/22 05:05:32;;;;;;;2.38;1.92;;;17.00;56.80;;;;;;4885575;29;20199;-81
2024/01/22 05:07:59;;;;;;;3.13;2.08;;;17.00;56.70;;;;;;4869492;29;20187;-79
2024/01/22 05:10:26;;;;;;;3.42;1.83;;;17.00;56.50;;;;;;4842229;29;20663;-82
2024/01/22 05:12:56;;;;;;;2.10;1.90;;;17.00;56.90;;;;;;4851159;29;20191;-80
2024/01/22 05:15:26;;;;;;;2.47;1.90;;;17.00;56.60;;;;;;4835111;29;20679;-80
2024/01/22 05:17:54;;;;;;;2.75;1.90;;;17.00;56.60;;;;;;4927308;23;20242;-81
2024/01/22 05:20:19;;;;;;;3.00;2.00;;;17.00;56.70;;;;;;4876327;23;20229;-80
2024/01/22 05:22:45;;;;;;;2.63;2.00;;;17.00;56.80;;;;;;4903514;29;20646;-81
2024/01/22 05:25:12;;;;;;;2.80;2.03;;;16.90;56.70;;;;;;4921131;29;20164;-82
2024/01/22 05:27:41;;;;;;;2.53;1.73;;;16.90;56.60;;;;;;4903974;29;20202;-81
2024/01/22 05:30:07;;;;;;;2.00;1.80;;;16.90;56.60;;;;;;4921067;29;20155;-79
2024/01/22 05:32:36;;;;;;;2.85;1.73;;;16.90;56.60;;;;;;4899852;29;20270;-81
2024/01/22 05:35:02;;;;;;;2.10;1.90;;;16.90;56.60;;;;;;4900163;29;20178;-82
2024/01/22 05:37:29;;;;;;;2.17;1.80;;;17.00;56.50;;;;;;4900314;29;20643;-81
2024/01/22 05:39:54;;;;;;;2.15;1.70;;;16.90;56.60;;;;;;4902116;29;20502;-82
2024/01/22 05:42:24;;;;;;;2.00;1.77;;;17.00;56.60;;;;;;4902959;29;20611;-79
2024/01/22 05:44:53;;;;;;;2.85;2.00;;;17.00;56.40;;;;;;4885798;29;20191;-82
2024/01/22 05:47:20;;;;;;;2.33;2.05;;;17.00;56.50;;;;;;4904225;29;20194;-82
2024/01/22 05:49:46;;;;;;;2.13;1.92;;;17.00;56.30;;;;;;4921163;29;20186;-83
2024/01/22 05:52:12;;;;;;;2.55;1.90;;;16.90;56.40;;;;;;4902977;29;20539;-78
2024/01/22 05:54:37;;;;;;;2.63;1.98;;;16.90;56.30;;;;;;4919284;29;20694;-80
2024/01/22 05:57:04;;;;;;;2.22;2.00;;;16.90;56.40;;;;;;4918036;29;20230;-79
2024/01/22 05:59:29;;;;;;;1.98;1.70;;;16.90;56.60;;;;;;4919205;29;20194;-82
2024/01/22 06:01:55;;;;;;;2.25;1.75;;;16.90;56.30;;;;;;4913440;29;20167;-82
2024/01/22 06:04:22;;;;;;;1.83;1.63;;;16.90;56.60;;;;;;4875720;29;20270;-80
2024/01/22 06:06:49;;;;;;;2.00;1.73;;;16.90;56.40;;;;;;4884682;29;20160;-83
2024/01/22 06:09:16;;;;;;;2.40;1.90;;;16.80;56.30;;;;;;4910334;29;20179;-82
2024/01/22 06:11:43;;;;;;;2.33;1.73;;;16.90;56.50;;;;;;4920434;29;20159;-81
2024/01/22 06:14:09;;;;;;;2.78;1.98;;;16.90;56.40;;;;;;4919009;29;20238;-81
2024/01/22 06:16:35;;;;;;;2.65;2.17;;;16.90;56.40;;;;;;4922061;29;20262;-81
2024/01/22 06:19:01;;;;;;;2.25;1.92;;;16.90;56.50;;;;;;4932714;29;20606;-80
2024/01/22 06:21:26;;;;;;;2.70;1.90;;;16.90;56.60;;;;;;4894222;29;20226;-81
2024/01/22 06:23:52;;;;;;;2.17;1.92;;;16.90;56.60;;;;;;4924253;29;20158;-82
2024/01/22 06:26:18;;;;;;;2.97;2.00;;;16.90;56.60;;;;;;4922215;29;20163;-82
2024/01/22 06:28:47;;;;;;;2.10;1.58;;;16.90;56.60;;;;;;4919286;29;20194;-81
2024/01/22 06:31:14;;;;;;;2.75;2.00;;;16.90;56.50;;;;;;4924005;29;20171;-81
2024/01/22 06:33:39;;;;;;;2.53;1.92;;;16.90;56.30;;;;;;4900263;29;20167;-82
2024/01/22 06:36:07;;;;;;;2.35;1.85;;;16.90;56.40;;;;;;4899335;29;20574;-81
2024/01/22 06:38:34;;;;;;;2.75;1.70;;;16.90;56.50;;;;;;4901006;29;20248;-82
2024/01/22 06:41:03;;;;;;;2.10;1.60;;;17.00;56.20;;;;;;4918262;29;20253;-81
2024/01/22 06:43:33;;;;;;;2.15;1.90;;;17.00;56.40;;;;;;4900899;29;20221;-83
2024/01/22 06:46:03;;;;;;;2.47;1.95;;;16.90;56.20;;;;;;4917985;29;20187;-82
2024/01/22 06:48:30;;;;;;;2.00;1.70;;;17.00;56.60;;;;;;4902093;29;20179;-81
2024/01/22 06:50:56;;;;;;;2.50;2.03;;;17.00;56.50;;;;;;4918827;29;20242;-83
2024/01/22 06:53:21;;;;;;;2.50;1.92;;;16.90;56.50;;;;;;4916013;29;20215;-79
2024/01/22 06:55:47;;;;;;;3.67;2.08;;;16.90;56.30;;;;;;4906724;29;20709;-82
2024/01/22 06:58:13;;;;;;;2.15;1.80;;;16.90;56.60;;;;;;4916887;29;20226;-81
2024/01/22 07:00:39;;;;;;;2.35;2.00;;;16.90;56.50;;;;;;4917420;29;20649;-82
2024/01/22 07:03:05;;;;;;;1.85;1.67;;;16.90;56.30;;;;;;4919655;29;20230;-84
2024/01/22 07:05:32;;;;;;;2.53;1.88;;;17.00;56.30;;;;;;4917549;29;20167;-82
2024/01/22 07:07:58;;;;;;;2.28;1.67;;;17.00;56.20;;;;;;4898961;29;20178;-84
2024/01/22 07:10:24;;;;;;;2.30;1.98;;;17.00;56.20;;;;;;4911264;29;20546;-84
2024/01/22 07:12:49;;;;;;;2.60;1.90;;;17.00;56.20;;;;;;4900712;29;20172;-80
2024/01/22 07:15:15;;;;;;;2.38;1.83;;;17.10;55.80;;;;;;4905499;29;20646;-82
2024/01/22 07:17:41;;;;;;;2.85;1.80;;;17.10;55.50;;;;;;4919873;29;20200;-81
2024/01/22 07:20:13;;;;;;;2.42;1.80;;;17.10;55.60;;;;;;4890314;29;20245;-84
2024/01/22 07:22:55;;;;;;;2.53;1.90;;;17.10;55.70;;;;;;4889199;29;20524;-85
2024/01/22 07:25:24;;;;;;;1.80;1.60;;;17.10;55.30;;;;;;4918162;29;20249;-84
2024/01/22 07:27:54;;;;;;;1.88;1.55;;;17.20;55.40;;;;;;4911088;29;20663;-83
2024/01/22 07:30:38;;;;;;;;;;;;;;;;;;;;;
2024/01/22 07:33:06;;;;;;;2.25;1.75;;;17.20;55.60;;;;;;4850130;29;20284;-83
2024/01/22 07:35:32;;;;;;;1.80;1.70;;;17.10;55.40;;;;;;4845238;29;20192;-86
2024/01/22 07:38:24;;;;;;;3.15;2.08;;;17.10;55.60;;;;;;4855331;29;20396;-89
2024/01/22 07:40:55;;;;;;;2.22;1.85;;;17.20;55.70;;;;;;4799752;29;20194;-86
2024/01/22 07:43:42;;;;;;;2.08;1.80;;;17.20;55.70;;;;;;4812574;29;20324;-85
2024/01/22 07:46:19;;;;;;;2.40;2.20;;;17.10;55.80;;;;;;4784164;29;20178;-84
2024/01/22 07:49:16;;;;;;;2.50;1.60;;;17.10;55.70;;;;;;4784894;29;20232;-82
2024/01/22 07:51:46;;;;;;;1.65;1.48;;;17.10;55.70;;;;;;4796741;29;20190;-84
2024/01/22 07:54:24;;;;;;;2.03;1.80;;;17.10;55.70;;;;;;4797516;29;20206;-84
2024/01/22 07:57:12;;;;;;;1.67;1.52;;;17.10;55.60;;;;;;4784741;29;20293;-85
2024/01/22 07:59:39;;;;;;;2.28;1.88;;;17.20;55.60;;;;;;4805397;29;20241;-83
2024/01/22 08:02:10;;;;;;;2.72;1.75;;;17.10;55.80;;;;;;4806055;29;20173;-83
2024/01/22 08:04:59;;;;;;;2.83;1.85;;;17.20;55.50;;;;;;4835901;29;20574;-83
2024/01/22 08:07:44;;;;;;;2.00;1.80;;;17.20;55.60;;;;;;4833121;29;20224;-84
2024/01/22 08:10:21;;;;;;;2.65;1.55;;;17.20;55.70;;;;;;4889766;29;20194;-81
2024/01/22 08:12:49;;;;;;;2.30;1.70;;;17.20;55.60;;;;;;4925379;29;20170;-83
2024/01/22 08:15:17;;;;;;;2.00;1.90;;;17.20;55.90;;;;;;4907929;29;20182;-81
2024/01/22 08:17:45;;;;;;;2.90;1.75;;;17.20;56.00;;;;;;4925430;29;20198;-82
2024/01/22 08:20:21;;;;;;;2.20;1.70;;;17.20;56.00;;;;;;4913129;29;20217;-83
2024/01/22 08:22:54;;;;;;;2.90;1.65;;;17.20;56.10;;;;;;4908231;29;20190;-83
2024/01/22 08:25:40;;;;;;;2.95;1.58;;;17.20;56.80;;;;;;4860800;29;20812;-83
2024/01/22 08:28:29;;;;;;;2.03;1.70;;;17.20;56.00;;;;;;4813265;29;20681;-81
2024/01/22 08:31:09;;;;;;;2.13;1.80;;;17.20;55.70;;;;;;4764168;30;20218;-83
2024/01/22 08:33:35;;;;;;;2.03;1.67;;;17.20;56.00;;;;;;4806705;29;20251;-82
2024/01/22 08:36:02;;;;;;;4.10;1.90;;;17.20;55.90;;;;;;4790864;30;20187;-83
2024/01/22 08:38:30;;;;;;;2.13;1.52;;;17.20;56.10;;;;;;4776337;30;20180;-84
2024/01/22 08:40:57;;;;;;;3.38;1.70;;;17.20;55.90;;;;;;4775829;30;20194;-83
2024/01/22 08:43:26;;;;;;;5.35;1.83;;;17.20;56.10;;;;;;4774497;30;20223;-81
2024/01/22 08:45:53;;;;;;;2.90;1.60;;;17.20;56.10;;;;;;4758612;30;20192;-81
2024/01/22 08:48:46;;;;;;;2.58;1.73;;;17.20;56.00;;;;;;4806921;29;20190;-82
2024/01/22 08:51:32;;;;;;;4.88;1.60;;;17.20;56.00;;;;;;4762290;30;20199;-81
2024/01/22 08:53:58;;;;;;;2.28;1.52;;;17.20;55.60;;;;;;4776504;30;20278;-81
2024/01/22 08:56:28;;;;;;;1.75;1.50;;;17.30;55.70;;;;;;4759619;30;20311;-81
2024/01/22 08:58:57;;;;;;;2.58;1.80;;;17.30;55.60;;;;;;4762853;30;20198;-84
2024/01/22 09:01:23;;;;;;;2.50;1.60;;;17.30;56.60;;;;;;4775034;30;20192;-82
2024/01/22 09:03:58;;;;;;;1.92;1.52;;;17.20;55.70;;;;;;4790449;30;20167;-82
2024/01/22 09:06:25;;;;;;;2.03;1.63;;;17.30;55.80;;;;;;4810486;29;20189;-82
2024/01/22 09:08:51;;;;;;;2.58;1.80;;;17.30;55.80;;;;;;4827859;29;20305;-83
2024/01/22 09:11:18;;;;;;;3.58;1.70;;;17.30;56.50;;;;;;4843468;29;20279;-81
2024/01/22 09:13:43;;;;;;;4.63;1.85;;;17.30;55.50;;;;;;4823521;29;20269;-81
2024/01/22 09:16:21;;;;;;;5.10;1.83;;;17.30;55.80;;;;;;4814334;29;20261;-82
2024/01/22 09:18:48;;;;;;;2.70;1.40;;;17.30;55.80;;;;;;4839845;29;20225;-84
2024/01/22 09:21:16;;;;;;;4.78;1.63;;;17.30;55.80;;;;;;4832911;29;20321;-82
2024/01/22 09:23:42;;;;;;;2.75;1.52;;;17.30;56.10;;;;;;4793028;29;20187;-82
2024/01/22 09:26:09;;;;;;;5.28;1.45;;;17.30;56.10;;;;;;4775864;29;20268;-82
2024/01/22 09:28:35;;;;;;;3.03;1.65;;;17.30;56.40;;;;;;4842978;29;20184;-82
2024/01/22 09:31:00;;;;;;;3.22;1.67;;;17.30;56.10;;;;;;4850430;29;20178;-81
2024/01/22 09:34:15;;;;;;;1.67;1.30;;;17.30;56.30;;;;;;4862360;29;20214;-81
2024/01/22 09:36:41;;;;;;;1.85;1.42;;;17.30;55.40;;;;;;4813457;29;20582;-82
2024/01/22 09:39:32;;;;;;;3.08;1.70;;;17.30;55.90;;;;;;4799288;29;20734;-81
2024/01/22 09:42:06;;;;;;;4.65;1.55;;;17.30;55.30;;;;;;4832088;29;20269;-82
2024/01/22 09:44:32;;;;;;;3.03;1.70;;;17.50;55.30;;;;;;4768272;30;20332;-84
2024/01/22 09:46:58;;;;;;;5.70;1.55;;;17.50;55.50;;;;;;4765662;30;20259;-82
2024/01/22 09:49:36;;;;;;;5.82;1.77;;;17.60;55.50;;;;;;4796354;30;20555;-82
2024/01/22 09:52:02;;;;;;;4.60;1.83;;;17.60;55.50;;;;;;4767972;30;20211;-82
2024/01/22 09:54:29;;;;;;;2.63;1.67;;;17.60;56.00;;;;;;4781871;29;20178;-82
2024/01/22 09:56:55;;;;;;;4.35;1.83;;;17.60;56.60;;;;;;4815835;29;20206;-83
2024/01/22 09:59:30;;;;;;;2.97;1.50;;;17.60;56.10;;;;;;4815199;29;20194;-83
2024/01/22 10:02:00;;;;;;;6.68;1.73;;;17.60;56.20;;;;;;4815726;29;20182;-85
2024/01/22 10:04:35;;;;;;;2.45;1.55;;;17.60;56.50;;;;;;4832651;29;20273;-85
2024/01/22 10:07:12;;;;;;;2.38;1.52;;;17.60;56.30;;;;;;4849200;29;20240;-83
2024/01/22 10:09:42;;;;;;;2.58;1.77;;;17.60;56.50;;;;;;4837328;29;20205;-86
2024/01/22 10:12:59;;;;;;;4.80;1.60;;;17.60;56.50;;;;;;4843071;29;20197;-86
2024/01/22 10:18:40;;;;;;;;;;;;;;;;;;;;;
2024/01/22 10:22:01;;;;;;;;;;;;;;;;;;;;;
2024/01/22 10:27:40;;;;;;;3.47;1.52;;;17.60;56.80;;;;;;4753989;30;20220;-85
2024/01/22 10:47:14;;;;;;;3.55;1.73;;;17.60;56.80;;;;;;4742754;30;20566;-86
2024/01/22 10:49:51;;;;;;;4.85;1.88;;;17.60;57.00;;;;;;4740474;30;20180;-83
2024/01/22 10:52:22;;;;;;;5.50;1.92;;;17.60;56.90;;;;;;4745327;30;20189;-84
2024/01/22 10:54:55;;;;;;;8.32;1.70;;;17.60;56.70;;;;;;4728949;30;20195;-84
2024/01/22 10:57:37;;;;;;;2.83;1.50;;;17.60;56.70;;;;;;4759531;30;20311;-86
2024/01/22 11:00:12;;;;;;;3.15;1.33;;;17.60;56.50;;;;;;4758643;30;20189;-85
2024/01/22 11:02:43;;;;;;;4.13;1.45;;;17.60;56.50;;;;;;4778358;30;20209;-85
2024/01/22 11:05:15;;;;;;;2.78;1.50;;;17.60;56.70;;;;;;4764951;30;20260;-85
2024/01/22 11:07:49;;;;;;;3.47;1.45;;;17.60;56.80;;;;;;4792293;30;20209;-85
2024/01/22 11:10:15;;;;;;;6.10;1.65;;;17.60;56.70;;;;;;4746679;30;20227;-82
2024/01/22 11:12:48;;;;;;;3.90;1.30;;;17.60;56.70;;;;;;4745620;30;20200;-86
2024/01/22 11:15:20;;;;;;;3.17;1.27;;;17.50;56.90;;;;;;4745167;30;20189;-84
2024/01/22 11:18:09;;;;;;;2.95;1.30;;;17.60;56.80;;;;;;4759218;30;20366;-84
2024/01/22 11:20:44;;;;;;;2.80;1.50;;;17.70;56.80;;;;;;4750572;30;20212;-84
2024/01/22 11:23:18;;;;;;;3.60;1.38;;;17.60;56.90;;;;;;4758454;30;20245;-83
2024/01/22 11:25:44;;;;;;;3.38;1.48;;;17.60;56.90;;;;;;4759649;30;20193;-84
2024/01/22 11:28:17;;;;;;;2.35;1.40;;;17.60;57.10;;;;;;4754006;30;20194;-83
2024/01/22 11:30:47;;;;;;;3.00;1.45;;;17.60;57.10;;;;;;4777283;29;20194;-83
2024/01/22 11:33:28;;;;;;;2.97;1.27;;;17.50;57.00;;;;;;4807848;29;20208;-82
2024/01/22 11:35:57;;;;;;;1.88;1.40;;;17.60;56.90;;;;;;4848527;29;20162;-81
2024/01/22 11:38:53;;;;;;;3.22;1.95;;;17.60;57.10;;;;;;4885395;29;20258;-83
2024/01/22 11:41:35;;;;;;;4.47;1.48;;;17.60;57.00;;;;;;4908299;29;20254;-81
2024/01/22 11:44:03;;;;;;;2.72;1.60;;;17.60;57.20;;;;;;4921128;29;20190;-84
2024/01/22 11:46:28;;;;;;;2.80;1.40;;;17.50;57.00;;;;;;4892761;29;20624;-82
2024/01/22 11:48:54;;;;;;;1.90;1.42;;;17.70;56.70;;;;;;4921850;29;20187;-81
2024/01/22 11:51:24;;;;;;;3.20;1.48;;;17.70;56.90;;;;;;4906119;29;20681;-83
2024/01/22 11:53:51;;;;;;;3.72;1.38;;;17.60;56.90;;;;;;4901352;29;20195;-82
2024/01/22 11:56:21;;;;;;;2.85;1.40;;;17.70;56.50;;;;;;4900683;29;20198;-81
2024/01/22 11:58:58;;;;;;;3.17;1.40;;;17.70;56.50;;;;;;4902783;29;20179;-82
2024/01/22 12:01:29;;;;;;;2.92;1.20;;;17.70;56.40;;;;;;4903900;29;20238;-80
2024/01/22 12:03:55;;;;;;;2.00;1.65;;;17.70;56.60;;;;;;4887202;29;20183;-82
2024/01/22 12:06:21;;;;;;;5.97;1.55;;;17.70;56.30;;;;;;4918609;29;20167;-81
2024/01/22 12:09:06;;;;;;;4.68;1.40;;;17.70;56.40;;;;;;4887776;29;20552;-82
2024/01/22 12:11:39;;;;;;;2.25;1.38;;;17.70;56.50;;;;;;4906186;29;20848;-79
2024/01/22 12:14:15;;;;;;;2.33;1.20;;;17.70;56.60;;;;;;4854172;29;20191;-82
2024/01/22 12:16:40;;;;;;;2.53;1.40;;;17.70;56.50;;;;;;4811870;29;20231;-80
2024/01/22 12:19:33;;;;;;;1.70;1.30;;;17.70;56.30;;;;;;4804296;29;20190;-83
2024/01/22 12:22:05;;;;;;;2.45;1.10;;;17.80;56.30;;;;;;4781128;29;20255;-83
2024/01/22 12:24:34;;;;;;;2.53;1.60;;;17.70;56.40;;;;;;4761448;30;20196;-83
2024/01/22 12:27:16;;;;;;;;;;;;;;;;;;;;;
2024/01/22 12:29:59;;;;;;;2.35;1.35;;;17.60;56.80;;;;;;4808531;29;20230;-83
2024/01/22 12:32:25;;;;;;;2.22;1.30;;;17.60;56.60;;;;;;4796309;29;20182;-81
2024/01/22 12:34:59;;;;;;;1.65;1.30;;;17.70;56.70;;;;;;4812320;29;20198;-83
2024/01/22 12:37:40;;;;;;;2.85;1.40;;;17.70;56.80;;;;;;4796338;29;20273;-84
2024/01/22 12:40:14;;;;;;;4.03;1.40;;;17.60;56.90;;;;;;4813446;29;20277;-82
2024/01/22 12:42:49;;;;;;;3.25;1.42;;;17.60;57.70;;;;;;4797390;29;20170;-83
2024/01/22 12:45:27;;;;;;;2.28;1.27;;;17.60;57.00;;;;;;4812782;29;20185;-81
2024/01/22 13:29:56;;;;;;;2.15;1.30;;;17.60;57.30;;;;;;4934515;29;20250;-83
2024/01/22 13:32:29;;;;;;;3.17;1.27;;;17.60;57.00;;;;;;4893533;29;20163;-83
2024/01/22 13:34:57;;;;;;;1.95;1.38;;;17.70;56.70;;;;;;4897719;29;20234;-84
2024/01/22 13:37:22;;;;;;;3.15;1.35;;;17.60;56.70;;;;;;4874119;29;20239;-82
2024/01/22 13:39:52;;;;;;;2.33;1.10;;;17.70;56.60;;;;;;4879581;29;20973;-83
2024/01/22 13:42:20;;;;;;;4.40;1.30;;;17.70;56.60;;;;;;4904911;29;20178;-83
2024/01/22 13:44:50;;;;;;;1.85;1.00;;;17.70;56.70;;;;;;4892085;29;20190;-83
2024/01/22 13:47:17;;;;;;;1.50;1.15;;;17.70;56.70;;;;;;4923486;29;20258;-83
2024/01/22 13:49:43;;;;;;;1.40;1.30;;;17.70;56.70;;;;;;4908126;29;20623;-82
2024/01/22 13:52:10;;;;;;;2.25;1.20;;;17.70;56.90;;;;;;4890655;29;20582;-83
2024/01/22 13:54:36;;;;;;;2.95;1.40;;;17.70;56.90;;;;;;4875642;29;20167;-84
2024/01/22 13:57:02;;;;;;;1.65;1.17;;;17.70;57.20;;;;;;4891941;29;20591;-82
2024/01/22 13:59:28;;;;;;;1.92;1.10;;;17.60;56.90;;;;;;4919276;29;20171;-82
2024/01/22 14:01:55;;;;;;;1.90;1.20;;;17.60;56.90;;;;;;4911908;29;20270;-82
2024/01/22 14:04:22;;;;;;;2.60;1.20;;;17.60;57.00;;;;;;4889922;29;20194;-84
2024/01/22 14:06:51;;;;;;;1.45;1.17;;;17.60;56.90;;;;;;4890399;29;20166;-83
2024/01/22 14:09:17;;;;;;;2.72;1.13;;;17.60;56.90;;;;;;4906636;29;20156;-82
2024/01/22 14:11:51;;;;;;;1.23;1.02;;;17.70;57.10;;;;;;4889045;29;20282;-85
2024/01/22 14:14:17;;;;;;;1.90;1.00;;;17.60;56.90;;;;;;4911176;29;20171;-83
2024/01/22 14:16:46;;;;;;;1.70;0.93;;;17.70;56.90;;;;;;4895027;29;20187;-84
2024/01/22 14:19:20;;;;;;;2.42;1.15;;;17.70;56.70;;;;;;4896024;29;20170;-84
2024/01/22 14:21:54;;;;;;;2.30;0.90;;;17.70;56.60;;;;;;4897177;29;20481;-86